sensor_id;sensor_type;location;lat;lon;timestamp;temperature;humidity
4425;DHT22;2225;53.568;13.266;2023-03-23T00:00:08;15.50;88.90
4425;DHT22;2225;53.568;13.266;2023-03-23T00:02:36;15.60;88.90
4425;DHT22;2225;53.568;13.266;2023-03-23T00:05:04;15.60;88.80
4425;DHT22;2225;53.568;13.266;2023-03-23T00:07:32;15.60;88.80
4425;DHT22;2225;53.568;13.266;2023-03-23T00:09:59;15.60;88.80
4425;DHT22;2225;53.568;13.266;2023-03-23T00:12:30;15.60;88.80
4425;DHT22;2225;53.568;13.266;2023-03-23T00:15:06;15.60;88.80
4425;DHT22;2225;53.568;13.266;2023-03-23T00:17:39;15.60;88.90
4425;DHT22;2225;53.568;13.266;2023-03-23T00:20:06;15.60;88.90
4425;DHT22;2225;53.568;13.266;2023-03-23T00:22:33;15.60;88.90
4425;DHT22;2225;53.568;13.266;2023-03-23T00:25:04;15.70;88.90
4425;DHT22;2225;53.568;13.266;2023-03-23T00:27:31;15.70;88.90
4425;DHT22;2225;53.568;13.266;2023-03-23T00:29:56;15.70;88.90
4425;DHT22;2225;53.568;13.266;2023-03-23T00:32:24;15.70;88.80
4425;DHT22;2225;53.568;13.266;2023-03-23T00:34:55;15.70;88.90
4425;DHT22;2225;53.568;13.266;2023-03-23T00:37:22;15.70;88.90
4425;DHT22;2225;53.568;13.266;2023-03-23T00:39:48;15.70;88.80
4425;DHT22;2225;53.568;13.266;2023-03-23T00:42:14;15.70;88.80
4425;DHT22;2225;53.568;13.266;2023-03-23T00:44:42;15.70;88.70
4425;DHT22;2225;53.568;13.266;2023-03-23T00:47:09;15.70;88.70
4425;DHT22;2225;53.568;13.266;2023-03-23T00:49:37;15.70;88.60
4425;DHT22;2225;53.568;13.266;2023-03-23T00:52:05;15.70;88.70
4425;DHT22;2225;53.568;13.266;2023-03-23T00:54:32;15.70;88.70
4425;DHT22;2225;53.568;13.266;2023-03-23T00:56:59;15.70;88.60
4425;DHT22;2225;53.568;13.266;2023-03-23T00:59:25;15.70;88.70
4425;DHT22;2225;53.568;13.266;2023-03-23T01:01:51;15.70;88.60
4425;DHT22;2225;53.568;13.266;2023-03-23T01:04:18;15.70;88.60
4425;DHT22;2225;53.568;13.266;2023-03-23T01:06:49;15.70;88.70
4425;DHT22;2225;53.568;13.266;2023-03-23T01:09:16;15.70;88.70
4425;DHT22;2225;53.568;13.266;2023-03-23T01:11:48;15.70;88.70
4425;DHT22;2225;53.568;13.266;2023-03-23T01:14:17;15.70;88.80
4425;DHT22;2225;53.568;13.266;2023-03-23T01:16:44;15.70;88.80
4425;DHT22;2225;53.568;13.266;2023-03-23T01:19:11;15.70;88.50
4425;DHT22;2225;53.568;13.266;2023-03-23T01:21:37;15.70;88.50
4425;DHT22;2225;53.568;13.266;2023-03-23T01:24:03;15.70;88.40
4425;DHT22;2225;53.568;13.266;2023-03-23T01:26:28;15.70;88.50
4425;DHT22;2225;53.568;13.266;2023-03-23T01:28:54;15.70;88.40
4425;DHT22;2225;53.568;13.266;2023-03-23T01:31:23;15.70;88.30
4425;DHT22;2225;53.568;13.266;2023-03-23T01:33:51;15.70;88.30
4425;DHT22;2225;53.568;13.266;2023-03-23T01:36:20;15.70;88.20
4425;DHT22;2225;53.568;13.266;2023-03-23T01:38:52;15.70;88.10
4425;DHT22;2225;53.568;13.266;2023-03-23T01:41:19;15.70;88.00
4425;DHT22;2225;53.568;13.266;2023-03-23T01:44:02;15.70;88.80
4425;DHT22;2225;53.568;13.266;2023-03-23T01:46:34;15.70;88.00
4425;DHT22;2225;53.568;13.266;2023-03-23T01:49:08;15.80;88.00
4425;DHT22;2225;53.568;13.266;2023-03-23T01:51:40;15.70;87.80
4425;DHT22;2225;53.568;13.266;2023-03-23T01:54:12;15.70;88.00
4425;DHT22;2225;53.568;13.266;2023-03-23T01:56:50;15.70;88.00
4425;DHT22;2225;53.568;13.266;2023-03-23T01:59:20;15.80;88.30
4425;DHT22;2225;53.568;13.266;2023-03-23T02:01:53;15.80;88.40
4425;DHT22;2225;53.568;13.266;2023-03-23T02:04:20;15.70;88.40
4425;DHT22;2225;53.568;13.266;2023-03-23T02:06:48;15.70;88.80
4425;DHT22;2225;53.568;13.266;2023-03-23T02:09:18;15.70;89.10
4425;DHT22;2225;53.568;13.266;2023-03-23T02:11:47;15.80;89.50
4425;DHT22;2225;53.568;13.266;2023-03-23T02:14:15;15.70;89.40
4425;DHT22;2225;53.568;13.266;2023-03-23T02:17:08;15.70;89.90
4425;DHT22;2225;53.568;13.266;2023-03-23T02:19:50;15.70;90.10
4425;DHT22;2225;53.568;13.266;2023-03-23T02:22:58;15.70;90.10
4425;DHT22;2225;53.568;13.266;2023-03-23T02:31:42;15.60;90.80
4425;DHT22;2225;53.568;13.266;2023-03-23T02:34:28;15.50;90.90
4425;DHT22;2225;53.568;13.266;2023-03-23T02:40:09;15.50;91.40
4425;DHT22;2225;53.568;13.266;2023-03-23T02:42:40;15.50;91.60
4425;DHT22;2225;53.568;13.266;2023-03-23T02:45:10;15.40;91.50
4425;DHT22;2225;53.568;13.266;2023-03-23T02:47:38;15.40;91.70
4425;DHT22;2225;53.568;13.266;2023-03-23T02:50:06;15.40;91.80
4425;DHT22;2225;53.568;13.266;2023-03-23T02:52:36;15.30;91.90
4425;DHT22;2225;53.568;13.266;2023-03-23T02:55:04;15.30;92.00
4425;DHT22;2225;53.568;13.266;2023-03-23T02:57:31;15.30;92.00
4425;DHT22;2225;53.568;13.266;2023-03-23T03:00:04;15.30;92.00
4425;DHT22;2225;53.568;13.266;2023-03-23T03:02:41;15.30;92.10
4425;DHT22;2225;53.568;13.266;2023-03-23T03:08:30;15.30;92.80
4425;DHT22;2225;53.568;13.266;2023-03-23T03:11:07;15.20;92.40
4425;DHT22;2225;53.568;13.266;2023-03-23T03:14:04;15.20;92.30
4425;DHT22;2225;53.568;13.266;2023-03-23T03:17:06;15.20;92.50
4425;DHT22;2225;53.568;13.266;2023-03-23T03:20:02;15.20;92.90
4425;DHT22;2225;53.568;13.266;2023-03-23T03:22:38;15.10;92.50
4425;DHT22;2225;53.568;13.266;2023-03-23T03:25:10;15.00;92.60
4425;DHT22;2225;53.568;13.266;2023-03-23T03:27:41;15.00;92.60
4425;DHT22;2225;53.568;13.266;2023-03-23T03:30:20;15.00;92.70
4425;DHT22;2225;53.568;13.266;2023-03-23T03:32:51;14.90;92.90
4425;DHT22;2225;53.568;13.266;2023-03-23T03:35:22;14.90;93.00
4425;DHT22;2225;53.568;13.266;2023-03-23T03:37:49;14.90;93.10
4425;DHT22;2225;53.568;13.266;2023-03-23T03:40:19;14.80;93.30
4425;DHT22;2225;53.568;13.266;2023-03-23T03:42:46;14.80;93.20
4425;DHT22;2225;53.568;13.266;2023-03-23T03:45:16;14.80;93.20
4425;DHT22;2225;53.568;13.266;2023-03-23T03:47:43;14.80;93.50
4425;DHT22;2225;53.568;13.266;2023-03-23T03:50:10;14.70;93.40
4425;DHT22;2225;53.568;13.266;2023-03-23T03:52:36;14.70;93.50
4425;DHT22;2225;53.568;13.266;2023-03-23T03:55:05;14.70;93.60
4425;DHT22;2225;53.568;13.266;2023-03-23T03:57:33;14.60;93.80
4425;DHT22;2225;53.568;13.266;2023-03-23T04:00:31;14.60;94.00
4425;DHT22;2225;53.568;13.266;2023-03-23T04:02:57;14.60;94.00
4425;DHT22;2225;53.568;13.266;2023-03-23T04:05:43;14.60;94.20
4425;DHT22;2225;53.568;13.266;2023-03-23T04:08:11;14.50;94.20
4425;DHT22;2225;53.568;13.266;2023-03-23T04:10:37;14.50;94.20
4425;DHT22;2225;53.568;13.266;2023-03-23T04:13:03;14.50;94.40
4425;DHT22;2225;53.568;13.266;2023-03-23T04:15:56;14.50;94.50
4425;DHT22;2225;53.568;13.266;2023-03-23T04:18:22;14.40;94.40
4425;DHT22;2225;53.568;13.266;2023-03-23T04:20:50;14.40;94.30
4425;DHT22;2225;53.568;13.266;2023-03-23T04:23:20;14.40;94.50
4425;DHT22;2225;53.568;13.266;2023-03-23T04:25:49;14.40;94.70
4425;DHT22;2225;53.568;13.266;2023-03-23T04:28:16;14.40;94.70
4425;DHT22;2225;53.568;13.266;2023-03-23T04:30:58;14.40;94.70
4425;DHT22;2225;53.568;13.266;2023-03-23T04:33:26;14.40;94.70
4425;DHT22;2225;53.568;13.266;2023-03-23T04:35:55;14.40;94.90
4425;DHT22;2225;53.568;13.266;2023-03-23T04:38:31;14.30;95.00
4425;DHT22;2225;53.568;13.266;2023-03-23T04:41:04;14.30;95.10
4425;DHT22;2225;53.568;13.266;2023-03-23T04:43:41;14.30;95.00
4425;DHT22;2225;53.568;13.266;2023-03-23T04:46:25;14.30;95.00
4425;DHT22;2225;53.568;13.266;2023-03-23T04:48:54;14.30;95.20
4425;DHT22;2225;53.568;13.266;2023-03-23T04:51:26;14.20;95.40
4425;DHT22;2225;53.568;13.266;2023-03-23T04:53:53;14.30;95.50
4425;DHT22;2225;53.568;13.266;2023-03-23T04:56:20;14.30;95.40
4425;DHT22;2225;53.568;13.266;2023-03-23T04:58:46;14.30;95.60
4425;DHT22;2225;53.568;13.266;2023-03-23T05:01:29;14.30;95.80
4425;DHT22;2225;53.568;13.266;2023-03-23T05:04:07;14.30;95.60
4425;DHT22;2225;53.568;13.266;2023-03-23T05:06:34;14.20;95.40
4425;DHT22;2225;53.568;13.266;2023-03-23T05:09:08;14.20;95.40
4425;DHT22;2225;53.568;13.266;2023-03-23T05:11:33;14.20;95.70
4425;DHT22;2225;53.568;13.266;2023-03-23T05:13:59;14.20;95.60
4425;DHT22;2225;53.568;13.266;2023-03-23T05:16:25;14.10;95.60
4425;DHT22;2225;53.568;13.266;2023-03-23T05:18:54;14.20;95.70
4425;DHT22;2225;53.568;13.266;2023-03-23T05:21:23;14.10;95.70
4425;DHT22;2225;53.568;13.266;2023-03-23T05:23:52;14.20;95.80
4425;DHT22;2225;53.568;13.266;2023-03-23T05:26:21;14.10;95.80
4425;DHT22;2225;53.568;13.266;2023-03-23T05:28:51;14.10;95.70
4425;DHT22;2225;53.568;13.266;2023-03-23T05:31:23;14.20;95.90
4425;DHT22;2225;53.568;13.266;2023-03-23T05:33:51;14.20;95.90
4425;DHT22;2225;53.568;13.266;2023-03-23T05:36:46;14.20;96.10
4425;DHT22;2225;53.568;13.266;2023-03-23T05:39:24;14.20;96.10
4425;DHT22;2225;53.568;13.266;2023-03-23T05:42:08;14.20;96.30
4425;DHT22;2225;53.568;13.266;2023-03-23T05:44:52;14.20;96.40
4425;DHT22;2225;53.568;13.266;2023-03-23T05:47:18;14.20;96.40
4425;DHT22;2225;53.568;13.266;2023-03-23T05:49:51;14.20;96.60
4425;DHT22;2225;53.568;13.266;2023-03-23T05:52:19;14.20;96.70
4425;DHT22;2225;53.568;13.266;2023-03-23T05:54:46;14.20;96.60
4425;DHT22;2225;53.568;13.266;2023-03-23T05:57:12;14.20;96.60
4425;DHT22;2225;53.568;13.266;2023-03-23T05:59:45;14.20;96.60
4425;DHT22;2225;53.568;13.266;2023-03-23T06:02:18;14.20;96.60
4425;DHT22;2225;53.568;13.266;2023-03-23T06:04:44;14.20;96.40
4425;DHT22;2225;53.568;13.266;2023-03-23T06:07:16;14.30;96.60
4425;DHT22;2225;53.568;13.266;2023-03-23T06:09:52;14.20;96.60
4425;DHT22;2225;53.568;13.266;2023-03-23T06:12:35;14.30;96.70
4425;DHT22;2225;53.568;13.266;2023-03-23T06:15:23;14.30;96.80
4425;DHT22;2225;53.568;13.266;2023-03-23T06:18:00;14.20;96.60
4425;DHT22;2225;53.568;13.266;2023-03-23T06:20:36;14.20;96.90
4425;DHT22;2225;53.568;13.266;2023-03-23T06:23:14;14.20;96.60
4425;DHT22;2225;53.568;13.266;2023-03-23T06:25:41;14.20;96.80
4425;DHT22;2225;53.568;13.266;2023-03-23T06:28:09;14.20;96.80
4425;DHT22;2225;53.568;13.266;2023-03-23T06:30:40;14.20;96.70
4425;DHT22;2225;53.568;13.266;2023-03-23T06:33:06;14.20;96.70
4425;DHT22;2225;53.568;13.266;2023-03-23T06:35:53;14.20;96.90
4425;DHT22;2225;53.568;13.266;2023-03-23T06:38:39;14.20;97.10
4425;DHT22;2225;53.568;13.266;2023-03-23T06:41:06;14.30;96.90
4425;DHT22;2225;53.568;13.266;2023-03-23T06:43:32;14.20;96.90
4425;DHT22;2225;53.568;13.266;2023-03-23T06:46:10;14.30;96.80
4425;DHT22;2225;53.568;13.266;2023-03-23T06:48:36;14.30;96.80
4425;DHT22;2225;53.568;13.266;2023-03-23T06:51:04;14.30;96.80
4425;DHT22;2225;53.568;13.266;2023-03-23T06:53:32;14.30;96.70
4425;DHT22;2225;53.568;13.266;2023-03-23T06:55:59;14.30;96.70
4425;DHT22;2225;53.568;13.266;2023-03-23T06:58:26;14.30;96.70
4425;DHT22;2225;53.568;13.266;2023-03-23T07:00:56;14.30;96.70
4425;DHT22;2225;53.568;13.266;2023-03-23T07:03:28;14.30;96.90
4425;DHT22;2225;53.568;13.266;2023-03-23T07:05:54;14.30;96.90
4425;DHT22;2225;53.568;13.266;2023-03-23T07:08:25;14.30;96.90
4425;DHT22;2225;53.568;13.266;2023-03-23T07:10:53;14.30;97.00
4425;DHT22;2225;53.568;13.266;2023-03-23T07:13:24;14.30;96.90
4425;DHT22;2225;53.568;13.266;2023-03-23T07:15:54;14.30;97.00
4425;DHT22;2225;53.568;13.266;2023-03-23T07:18:21;14.30;97.10
4425;DHT22;2225;53.568;13.266;2023-03-23T07:20:51;14.30;97.00
4425;DHT22;2225;53.568;13.266;2023-03-23T07:23:19;14.40;97.00
4425;DHT22;2225;53.568;13.266;2023-03-23T07:25:54;14.40;97.10
4425;DHT22;2225;53.568;13.266;2023-03-23T07:28:25;14.50;97.00
4425;DHT22;2225;53.568;13.266;2023-03-23T07:30:54;14.50;96.90
4425;DHT22;2225;53.568;13.266;2023-03-23T07:33:20;14.60;96.90
4425;DHT22;2225;53.568;13.266;2023-03-23T07:35:47;14.60;96.80
4425;DHT22;2225;53.568;13.266;2023-03-23T07:38:15;14.70;96.80
4425;DHT22;2225;53.568;13.266;2023-03-23T07:40:46;14.70;96.70
4425;DHT22;2225;53.568;13.266;2023-03-23T07:43:15;14.70;96.70
4425;DHT22;2225;53.568;13.266;2023-03-23T07:46:00;14.70;96.60
4425;DHT22;2225;53.568;13.266;2023-03-23T07:48:39;14.80;96.50
4425;DHT22;2225;53.568;13.266;2023-03-23T07:51:06;14.80;96.50
4425;DHT22;2225;53.568;13.266;2023-03-23T07:53:33;14.80;96.50
4425;DHT22;2225;53.568;13.266;2023-03-23T07:56:14;14.80;96.60
4425;DHT22;2225;53.568;13.266;2023-03-23T07:58:52;14.90;96.70
4425;DHT22;2225;53.568;13.266;2023-03-23T08:01:18;14.90;96.60
4425;DHT22;2225;53.568;13.266;2023-03-23T08:04:05;14.90;96.60
4425;DHT22;2225;53.568;13.266;2023-03-23T08:06:57;14.90;96.50
4425;DHT22;2225;53.568;13.266;2023-03-23T08:09:55;15.00;96.60
4425;DHT22;2225;53.568;13.266;2023-03-23T08:12:30;15.00;96.60
4425;DHT22;2225;53.568;13.266;2023-03-23T08:15:15;15.10;96.60
4425;DHT22;2225;53.568;13.266;2023-03-23T08:18:07;15.10;96.40
4425;DHT22;2225;53.568;13.266;2023-03-23T08:20:57;15.20;96.40
4425;DHT22;2225;53.568;13.266;2023-03-23T08:23:45;15.20;96.40
4425;DHT22;2225;53.568;13.266;2023-03-23T08:26:20;15.20;96.40
4425;DHT22;2225;53.568;13.266;2023-03-23T08:29:12;15.30;96.40
4425;DHT22;2225;53.568;13.266;2023-03-23T08:32:02;15.30;96.40
4425;DHT22;2225;53.568;13.266;2023-03-23T08:34:47;15.40;96.30
4425;DHT22;2225;53.568;13.266;2023-03-23T08:37:31;15.40;96.40
4425;DHT22;2225;53.568;13.266;2023-03-23T08:40:18;15.40;96.30
4425;DHT22;2225;53.568;13.266;2023-03-23T08:42:56;15.50;96.30
4425;DHT22;2225;53.568;13.266;2023-03-23T08:45:41;15.60;96.20
4425;DHT22;2225;53.568;13.266;2023-03-23T08:48:21;15.60;96.00
4425;DHT22;2225;53.568;13.266;2023-03-23T08:51:07;15.70;96.10
4425;DHT22;2225;53.568;13.266;2023-03-23T08:53:54;15.70;95.90
4425;DHT22;2225;53.568;13.266;2023-03-23T08:56:35;15.70;95.70
4425;DHT22;2225;53.568;13.266;2023-03-23T08:59:29;15.80;95.90
4425;DHT22;2225;53.568;13.266;2023-03-23T09:02:02;15.80;95.70
4425;DHT22;2225;53.568;13.266;2023-03-23T09:04:35;15.90;95.60
4425;DHT22;2225;53.568;13.266;2023-03-23T09:07:30;16.00;95.20
4425;DHT22;2225;53.568;13.266;2023-03-23T09:09:56;16.00;95.20
4425;DHT22;2225;53.568;13.266;2023-03-23T09:12:21;16.10;95.10
4425;DHT22;2225;53.568;13.266;2023-03-23T09:14:48;16.20;95.00
4425;DHT22;2225;53.568;13.266;2023-03-23T09:17:14;16.30;94.90
4425;DHT22;2225;53.568;13.266;2023-03-23T09:19:40;16.30;94.90
4425;DHT22;2225;53.568;13.266;2023-03-23T09:22:07;16.40;94.60
4425;DHT22;2225;53.568;13.266;2023-03-23T09:24:33;16.50;94.60
4425;DHT22;2225;53.568;13.266;2023-03-23T09:26:59;16.50;94.50
4425;DHT22;2225;53.568;13.266;2023-03-23T09:29:26;16.60;94.10
4425;DHT22;2225;53.568;13.266;2023-03-23T09:31:53;16.70;94.10
4425;DHT22;2225;53.568;13.266;2023-03-23T09:34:19;16.80;94.20
4425;DHT22;2225;53.568;13.266;2023-03-23T09:36:45;16.80;94.00
4425;DHT22;2225;53.568;13.266;2023-03-23T09:39:12;17.00;94.00
4425;DHT22;2225;53.568;13.266;2023-03-23T09:50:33;17.50;93.20
4425;DHT22;2225;53.568;13.266;2023-03-23T09:53:23;17.60;92.80
4425;DHT22;2225;53.568;13.266;2023-03-23T09:55:52;17.70;92.30
4425;DHT22;2225;53.568;13.266;2023-03-23T09:58:28;17.80;92.40
4425;DHT22;2225;53.568;13.266;2023-03-23T10:01:07;17.80;92.20
4425;DHT22;2225;53.568;13.266;2023-03-23T10:03:40;17.90;92.10
4425;DHT22;2225;53.568;13.266;2023-03-23T10:06:11;18.00;91.80
4425;DHT22;2225;53.568;13.266;2023-03-23T10:08:47;18.00;91.80
4425;DHT22;2225;53.568;13.266;2023-03-23T10:11:32;18.00;92.10
4425;DHT22;2225;53.568;13.266;2023-03-23T10:14:25;18.10;91.90
4425;DHT22;2225;53.568;13.266;2023-03-23T10:17:17;18.20;91.60
4425;DHT22;2225;53.568;13.266;2023-03-23T10:23:00;18.30;90.60
4425;DHT22;2225;53.568;13.266;2023-03-23T10:25:36;18.30;90.80
4425;DHT22;2225;53.568;13.266;2023-03-23T10:28:11;18.40;90.90
4425;DHT22;2225;53.568;13.266;2023-03-23T10:30:40;18.40;90.80
4425;DHT22;2225;53.568;13.266;2023-03-23T10:36:00;18.50;90.60
4425;DHT22;2225;53.568;13.266;2023-03-23T10:38:36;18.50;90.50
4425;DHT22;2225;53.568;13.266;2023-03-23T10:41:09;18.50;90.20
4425;DHT22;2225;53.568;13.266;2023-03-23T10:43:38;18.60;90.10
4425;DHT22;2225;53.568;13.266;2023-03-23T10:46:29;18.60;90.20
4425;DHT22;2225;53.568;13.266;2023-03-23T10:48:58;18.60;90.00
4425;DHT22;2225;53.568;13.266;2023-03-23T10:51:32;18.60;90.10
4425;DHT22;2225;53.568;13.266;2023-03-23T10:54:02;18.60;90.20
4425;DHT22;2225;53.568;13.266;2023-03-23T10:56:42;18.50;90.10
4425;DHT22;2225;53.568;13.266;2023-03-23T10:59:29;18.60;90.10
4425;DHT22;2225;53.568;13.266;2023-03-23T11:02:02;18.60;90.30
4425;DHT22;2225;53.568;13.266;2023-03-23T11:04:30;18.70;90.20
4425;DHT22;2225;53.568;13.266;2023-03-23T11:07:00;18.60;88.80
4425;DHT22;2225;53.568;13.266;2023-03-23T11:09:39;18.60;88.90
4425;DHT22;2225;53.568;13.266;2023-03-23T11:12:17;18.60;88.70
4425;DHT22;2225;53.568;13.266;2023-03-23T11:14:44;18.60;89.20
4425;DHT22;2225;53.568;13.266;2023-03-23T11:17:25;18.60;88.80
4425;DHT22;2225;53.568;13.266;2023-03-23T11:19:52;18.60;88.30
4425;DHT22;2225;53.568;13.266;2023-03-23T11:22:31;18.60;89.10
4425;DHT22;2225;53.568;13.266;2023-03-23T11:25:03;18.70;89.70
4425;DHT22;2225;53.568;13.266;2023-03-23T11:27:31;18.70;88.70
4425;DHT22;2225;53.568;13.266;2023-03-23T11:30:22;18.80;88.70
4425;DHT22;2225;53.568;13.266;2023-03-23T11:32:50;18.90;88.50
4425;DHT22;2225;53.568;13.266;2023-03-23T11:35:21;19.00;88.90
4425;DHT22;2225;53.568;13.266;2023-03-23T11:37:52;19.10;88.30
4425;DHT22;2225;53.568;13.266;2023-03-23T11:40:25;19.20;87.40
4425;DHT22;2225;53.568;13.266;2023-03-23T11:45:24;19.30;85.50
4425;DHT22;2225;53.568;13.266;2023-03-23T11:51:10;19.20;85.70
4425;DHT22;2225;53.568;13.266;2023-03-23T11:54:00;19.20;85.30
4425;DHT22;2225;53.568;13.266;2023-03-23T11:56:38;19.10;85.60
4425;DHT22;2225;53.568;13.266;2023-03-23T11:59:17;19.10;85.70
4425;DHT22;2225;53.568;13.266;2023-03-23T12:04:34;19.00;85.80
4425;DHT22;2225;53.568;13.266;2023-03-23T12:07:33;18.90;86.20
4425;DHT22;2225;53.568;13.266;2023-03-23T12:13:24;18.80;87.80
4425;DHT22;2225;53.568;13.266;2023-03-23T12:22:19;18.60;91.10
4425;DHT22;2225;53.568;13.266;2023-03-23T12:31:11;17.60;89.60
4425;DHT22;2225;53.568;13.266;2023-03-23T12:34:20;17.40;90.30
4425;DHT22;2225;53.568;13.266;2023-03-23T12:37:21;17.00;91.00
4425;DHT22;2225;53.568;13.266;2023-03-23T12:40:19;16.80;91.70
4425;DHT22;2225;53.568;13.266;2023-03-23T12:46:14;16.50;92.60
4425;DHT22;2225;53.568;13.266;2023-03-23T12:48:48;16.40;92.90
4425;DHT22;2225;53.568;13.266;2023-03-23T12:51:36;16.40;93.10
4425;DHT22;2225;53.568;13.266;2023-03-23T12:54:36;16.30;93.20
4425;DHT22;2225;53.568;13.266;2023-03-23T12:57:15;16.30;93.80
4425;DHT22;2225;53.568;13.266;2023-03-23T13:03:14;16.30;94.50
4425;DHT22;2225;53.568;13.266;2023-03-23T13:05:53;16.30;94.90
4425;DHT22;2225;53.568;13.266;2023-03-23T13:08:30;16.50;95.40
4425;DHT22;2225;53.568;13.266;2023-03-23T13:11:11;16.50;95.30
4425;DHT22;2225;53.568;13.266;2023-03-23T13:16:27;16.80;95.00
4425;DHT22;2225;53.568;13.266;2023-03-23T13:22:13;17.00;94.30
4425;DHT22;2225;53.568;13.266;2023-03-23T13:24:55;17.10;93.80
4425;DHT22;2225;53.568;13.266;2023-03-23T13:27:27;17.10;93.60
4425;DHT22;2225;53.568;13.266;2023-03-23T13:29:57;17.10;93.10
4425;DHT22;2225;53.568;13.266;2023-03-23T13:32:37;17.00;92.70
4425;DHT22;2225;53.568;13.266;2023-03-23T13:35:11;17.10;92.70
4425;DHT22;2225;53.568;13.266;2023-03-23T13:37:44;17.00;92.60
4425;DHT22;2225;53.568;13.266;2023-03-23T13:42:48;17.00;92.40
4425;DHT22;2225;53.568;13.266;2023-03-23T13:45:22;17.00;92.60
4425;DHT22;2225;53.568;13.266;2023-03-23T13:48:03;17.00;92.40
4425;DHT22;2225;53.568;13.266;2023-03-23T13:50:44;17.00;92.40
4425;DHT22;2225;53.568;13.266;2023-03-23T13:56:21;17.00;92.80
4425;DHT22;2225;53.568;13.266;2023-03-23T13:59:06;17.00;92.80
4425;DHT22;2225;53.568;13.266;2023-03-23T14:01:35;17.00;92.80
4425;DHT22;2225;53.568;13.266;2023-03-23T14:04:31;17.00;92.90
4425;DHT22;2225;53.568;13.266;2023-03-23T14:06:57;17.00;92.70
4425;DHT22;2225;53.568;13.266;2023-03-23T14:09:37;17.00;92.70
4425;DHT22;2225;53.568;13.266;2023-03-23T14:12:20;17.00;92.50
4425;DHT22;2225;53.568;13.266;2023-03-23T14:14:50;17.00;92.50
4425;DHT22;2225;53.568;13.266;2023-03-23T14:17:40;16.90;92.30
4425;DHT22;2225;53.568;13.266;2023-03-23T14:20:32;16.90;91.60
4425;DHT22;2225;53.568;13.266;2023-03-23T14:23:00;16.90;91.90
4425;DHT22;2225;53.568;13.266;2023-03-23T14:25:30;16.90;91.70
4425;DHT22;2225;53.568;13.266;2023-03-23T14:27:58;16.90;91.20
4425;DHT22;2225;53.568;13.266;2023-03-23T14:30:26;16.90;91.30
4425;DHT22;2225;53.568;13.266;2023-03-23T14:33:01;16.80;91.40
4425;DHT22;2225;53.568;13.266;2023-03-23T14:35:34;16.80;91.20
4425;DHT22;2225;53.568;13.266;2023-03-23T14:38:01;16.80;91.00
4425;DHT22;2225;53.568;13.266;2023-03-23T14:40:28;16.70;91.00
4425;DHT22;2225;53.568;13.266;2023-03-23T14:42:56;16.70;91.00
4425;DHT22;2225;53.568;13.266;2023-03-23T14:45:23;16.70;91.30
4425;DHT22;2225;53.568;13.266;2023-03-23T14:47:55;16.60;91.20
4425;DHT22;2225;53.568;13.266;2023-03-23T14:50:52;16.60;91.30
4425;DHT22;2225;53.568;13.266;2023-03-23T14:53:32;16.70;91.20
4425;DHT22;2225;53.568;13.266;2023-03-23T14:56:09;16.70;91.40
4425;DHT22;2225;53.568;13.266;2023-03-23T14:58:37;16.70;90.80
4425;DHT22;2225;53.568;13.266;2023-03-23T15:01:09;16.70;91.10
4425;DHT22;2225;53.568;13.266;2023-03-23T15:03:48;16.80;91.00
4425;DHT22;2225;53.568;13.266;2023-03-23T15:06:21;16.90;91.00
4425;DHT22;2225;53.568;13.266;2023-03-23T15:08:50;16.90;90.80
4425;DHT22;2225;53.568;13.266;2023-03-23T15:11:26;17.00;90.60
4425;DHT22;2225;53.568;13.266;2023-03-23T15:13:57;17.00;90.60
4425;DHT22;2225;53.568;13.266;2023-03-23T15:16:28;17.10;90.50
4425;DHT22;2225;53.568;13.266;2023-03-23T15:19:02;17.10;90.60
4425;DHT22;2225;53.568;13.266;2023-03-23T15:21:33;17.10;90.50
4425;DHT22;2225;53.568;13.266;2023-03-23T15:24:02;17.10;90.50
4425;DHT22;2225;53.568;13.266;2023-03-23T15:26:44;17.10;90.50
4425;DHT22;2225;53.568;13.266;2023-03-23T15:29:12;17.10;90.50
4425;DHT22;2225;53.568;13.266;2023-03-23T15:31:50;17.10;90.60
4425;DHT22;2225;53.568;13.266;2023-03-23T15:34:32;17.20;90.70
4425;DHT22;2225;53.568;13.266;2023-03-23T15:37:17;17.20;90.70
4425;DHT22;2225;53.568;13.266;2023-03-23T15:39:49;17.20;90.90
4425;DHT22;2225;53.568;13.266;2023-03-23T15:42:25;17.10;91.10
4425;DHT22;2225;53.568;13.266;2023-03-23T15:45:16;17.10;91.10
4425;DHT22;2225;53.568;13.266;2023-03-23T15:47:50;17.10;91.20
4425;DHT22;2225;53.568;13.266;2023-03-23T15:52:51;17.00;91.10
4425;DHT22;2225;53.568;13.266;2023-03-23T15:58:09;16.90;91.30
4425;DHT22;2225;53.568;13.266;2023-03-23T16:00:38;16.80;91.50
4425;DHT22;2225;53.568;13.266;2023-03-23T16:03:11;16.80;91.60
4425;DHT22;2225;53.568;13.266;2023-03-23T16:05:40;16.80;91.80
4425;DHT22;2225;53.568;13.266;2023-03-23T16:08:10;16.70;91.80
4425;DHT22;2225;53.568;13.266;2023-03-23T16:10:37;16.60;91.90
4425;DHT22;2225;53.568;13.266;2023-03-23T16:13:04;16.60;91.90
4425;DHT22;2225;53.568;13.266;2023-03-23T16:15:32;16.60;91.90
4425;DHT22;2225;53.568;13.266;2023-03-23T16:17:59;16.60;92.00
4425;DHT22;2225;53.568;13.266;2023-03-23T16:20:28;16.60;92.10
4425;DHT22;2225;53.568;13.266;2023-03-23T16:22:55;16.60;92.10
4425;DHT22;2225;53.568;13.266;2023-03-23T16:25:22;16.60;92.20
4425;DHT22;2225;53.568;13.266;2023-03-23T16:27:49;16.60;92.20
4425;DHT22;2225;53.568;13.266;2023-03-23T16:30:21;16.60;92.20
4425;DHT22;2225;53.568;13.266;2023-03-23T16:32:50;16.60;92.30
4425;DHT22;2225;53.568;13.266;2023-03-23T16:35:17;16.60;92.50
4425;DHT22;2225;53.568;13.266;2023-03-23T16:37:51;16.60;92.60
4425;DHT22;2225;53.568;13.266;2023-03-23T16:40:33;16.60;92.70
4425;DHT22;2225;53.568;13.266;2023-03-23T16:43:00;16.60;92.60
4425;DHT22;2225;53.568;13.266;2023-03-23T16:45:34;16.60;92.60
4425;DHT22;2225;53.568;13.266;2023-03-23T16:48:01;16.60;92.60
4425;DHT22;2225;53.568;13.266;2023-03-23T16:50:28;16.60;92.20
4425;DHT22;2225;53.568;13.266;2023-03-23T16:52:55;16.60;92.20
4425;DHT22;2225;53.568;13.266;2023-03-23T16:55:22;16.50;92.10
4425;DHT22;2225;53.568;13.266;2023-03-23T16:57:52;16.50;92.00
4425;DHT22;2225;53.568;13.266;2023-03-23T17:00:39;16.50;92.00
4425;DHT22;2225;53.568;13.266;2023-03-23T17:03:06;16.40;92.10
4425;DHT22;2225;53.568;13.266;2023-03-23T17:05:35;16.30;92.00
4425;DHT22;2225;53.568;13.266;2023-03-23T17:08:03;16.30;92.20
4425;DHT22;2225;53.568;13.266;2023-03-23T17:10:30;16.20;92.00
4425;DHT22;2225;53.568;13.266;2023-03-23T17:12:57;16.10;91.90
4425;DHT22;2225;53.568;13.266;2023-03-23T17:15:24;16.10;92.00
4425;DHT22;2225;53.568;13.266;2023-03-23T17:17:51;16.00;92.00
4425;DHT22;2225;53.568;13.266;2023-03-23T17:20:20;15.90;92.00
4425;DHT22;2225;53.568;13.266;2023-03-23T17:22:48;15.90;92.10
4425;DHT22;2225;53.568;13.266;2023-03-23T17:25:15;15.80;92.10
4425;DHT22;2225;53.568;13.266;2023-03-23T17:27:42;15.70;92.20
4425;DHT22;2225;53.568;13.266;2023-03-23T17:30:09;15.60;92.30
4425;DHT22;2225;53.568;13.266;2023-03-23T17:32:37;15.50;92.40
4425;DHT22;2225;53.568;13.266;2023-03-23T17:35:05;15.50;92.50
4425;DHT22;2225;53.568;13.266;2023-03-23T17:37:32;15.40;92.80
4425;DHT22;2225;53.568;13.266;2023-03-23T17:39:59;15.40;92.70